sensor_id;sensor_type;location;lat;lon;timestamp;P1;durP1;ratioP1;P2;durP2;ratioP2
24826;SDS011;12910;57.690;11.974;2022-11-15T00:01:17;4.30;;;4.00;;
24826;SDS011;12910;57.690;11.974;2022-11-15T00:03:43;4.30;;;3.40;;
24826;SDS011;12910;57.690;11.974;2022-11-15T00:06:09;4.97;;;3.60;;
24826;SDS011;12910;57.690;11.974;2022-11-15T00:08:35;4.20;;;3.40;;
24826;SDS011;12910;57.690;11.974;2022-11-15T00:11:01;10.20;;;3.37;;
24826;SDS011;12910;57.690;11.974;2022-11-15T00:13:27;3.33;;;3.13;;
24826;SDS011;12910;57.690;11.974;2022-11-15T00:15:56;3.70;;;3.50;;
24826;SDS011;12910;57.690;11.974;2022-11-15T00:18:25;4.00;;;3.73;;
24826;SDS011;12910;57.690;11.974;2022-11-15T00:20:51;3.87;;;3.57;;
24826;SDS011;12910;57.690;11.974;2022-11-15T00:23:17;3.87;;;3.67;;
24826;SDS011;12910;57.690;11.974;2022-11-15T00:25:42;5.77;;;3.93;;
24826;SDS011;12910;57.690;11.974;2022-11-15T00:28:07;6.80;;;3.77;;
24826;SDS011;12910;57.690;11.974;2022-11-15T00:30:33;3.67;;;3.37;;
24826;SDS011;12910;57.690;11.974;2022-11-15T00:33:05;3.60;;;3.30;;
24826;SDS011;12910;57.690;11.974;2022-11-15T00:35:32;3.80;;;3.50;;
24826;SDS011;12910;57.690;11.974;2022-11-15T00:38:01;3.60;;;3.30;;
24826;SDS011;12910;57.690;11.974;2022-11-15T00:40:27;4.03;;;3.73;;
24826;SDS011;12910;57.690;11.974;2022-11-15T00:42:52;3.13;;;2.93;;
24826;SDS011;12910;57.690;11.974;2022-11-15T00:45:18;4.13;;;3.83;;
24826;SDS011;12910;57.690;11.974;2022-11-15T00:47:44;6.10;;;3.83;;
24826;SDS011;12910;57.690;11.974;2022-11-15T00:50:10;5.07;;;3.70;;
24826;SDS011;12910;57.690;11.974;2022-11-15T00:52:36;3.77;;;3.47;;
24826;SDS011;12910;57.690;11.974;2022-11-15T00:55:01;3.63;;;3.43;;
24826;SDS011;12910;57.690;11.974;2022-11-15T00:57:27;3.80;;;3.53;;
24826;SDS011;12910;57.690;11.974;2022-11-15T00:59:52;5.43;;;3.63;;
24826;SDS011;12910;57.690;11.974;2022-11-15T01:02:17;3.37;;;3.07;;
24826;SDS011;12910;57.690;11.974;2022-11-15T01:04:43;4.47;;;3.67;;
24826;SDS011;12910;57.690;11.974;2022-11-15T01:07:08;3.90;;;3.60;;
24826;SDS011;12910;57.690;11.974;2022-11-15T01:09:34;3.70;;;3.40;;
24826;SDS011;12910;57.690;11.974;2022-11-15T01:11:59;3.57;;;3.27;;
24826;SDS011;12910;57.690;11.974;2022-11-15T01:14:24;3.63;;;3.43;;
24826;SDS011;12910;57.690;11.974;2022-11-15T01:16:50;3.70;;;3.50;;
24826;SDS011;12910;57.690;11.974;2022-11-15T01:19:15;4.27;;;3.87;;
24826;SDS011;12910;57.690;11.974;2022-11-15T01:21:41;5.13;;;3.60;;
24826;SDS011;12910;57.690;11.974;2022-11-15T01:24:07;3.97;;;3.67;;
24826;SDS011;12910;57.690;11.974;2022-11-15T01:26:33;4.97;;;4.50;;
24826;SDS011;12910;57.690;11.974;2022-11-15T01:28:58;4.07;;;3.77;;
24826;SDS011;12910;57.690;11.974;2022-11-15T01:31:23;5.10;;;3.50;;
24826;SDS011;12910;57.690;11.974;2022-11-15T01:33:49;3.70;;;3.40;;
24826;SDS011;12910;57.690;11.974;2022-11-15T01:36:15;4.00;;;3.70;;
24826;SDS011;12910;57.690;11.974;2022-11-15T01:38:43;4.57;;;3.63;;
24826;SDS011;12910;57.690;11.974;2022-11-15T01:41:16;4.90;;;3.83;;
24826;SDS011;12910;57.690;11.974;2022-11-15T01:43:43;4.13;;;3.83;;
24826;SDS011;12910;57.690;11.974;2022-11-15T01:48:47;3.53;;;3.33;;
24826;SDS011;12910;57.690;11.974;2022-11-15T01:51:15;4.40;;;4.00;;
24826;SDS011;12910;57.690;11.974;2022-11-15T01:53:42;4.37;;;3.43;;
24826;SDS011;12910;57.690;11.974;2022-11-15T01:56:11;4.47;;;4.17;;
24826;SDS011;12910;57.690;11.974;2022-11-15T01:58:41;3.50;;;3.27;;
24826;SDS011;12910;57.690;11.974;2022-11-15T02:01:09;3.50;;;3.20;;
24826;SDS011;12910;57.690;11.974;2022-11-15T02:03:40;3.40;;;3.10;;
24826;SDS011;12910;57.690;11.974;2022-11-15T02:06:13;3.90;;;3.60;;
24826;SDS011;12910;57.690;11.974;2022-11-15T02:08:39;3.87;;;3.57;;
24826;SDS011;12910;57.690;11.974;2022-11-15T02:11:09;3.60;;;3.40;;
24826;SDS011;12910;57.690;11.974;2022-11-15T02:13:34;5.63;;;3.93;;
24826;SDS011;12910;57.690;11.974;2022-11-15T02:18:45;3.90;;;3.03;;
24826;SDS011;12910;57.690;11.974;2022-11-15T02:32:50;3.43;;;3.23;;
24826;SDS011;12910;57.690;11.974;2022-11-15T02:37:52;3.83;;;3.53;;
24826;SDS011;12910;57.690;11.974;2022-11-15T02:43:12;3.80;;;3.60;;
24826;SDS011;12910;57.690;11.974;2022-11-15T02:46:08;3.10;;;2.90;;
24826;SDS011;12910;57.690;11.974;2022-11-15T02:48:39;3.70;;;3.40;;
24826;SDS011;12910;57.690;11.974;2022-11-15T02:51:08;4.40;;;3.63;;
24826;SDS011;12910;57.690;11.974;2022-11-15T02:53:34;4.87;;;4.47;;
24826;SDS011;12910;57.690;11.974;2022-11-15T02:56:00;4.70;;;4.40;;
24826;SDS011;12910;57.690;11.974;2022-11-15T03:01:17;3.63;;;3.33;;
24826;SDS011;12910;57.690;11.974;2022-11-15T03:04:22;4.03;;;3.70;;
24826;SDS011;12910;57.690;11.974;2022-11-15T03:06:58;4.07;;;3.67;;
24826;SDS011;12910;57.690;11.974;2022-11-15T03:10:05;3.33;;;3.03;;
24826;SDS011;12910;57.690;11.974;2022-11-15T03:15:16;4.97;;;4.57;;
24826;SDS011;12910;57.690;11.974;2022-11-15T03:17:52;4.60;;;3.70;;
24826;SDS011;12910;57.690;11.974;2022-11-15T03:20:21;5.17;;;4.67;;
24826;SDS011;12910;57.690;11.974;2022-11-15T03:22:50;4.57;;;4.27;;
24826;SDS011;12910;57.690;11.974;2022-11-15T03:25:19;4.30;;;4.00;;
24826;SDS011;12910;57.690;11.974;2022-11-15T03:27:48;4.40;;;4.10;;
24826;SDS011;12910;57.690;11.974;2022-11-15T03:30:17;4.43;;;4.13;;
24826;SDS011;12910;57.690;11.974;2022-11-15T03:32:46;5.10;;;4.80;;
24826;SDS011;12910;57.690;11.974;2022-11-15T03:35:17;5.83;;;4.67;;
24826;SDS011;12910;57.690;11.974;2022-11-15T03:37:48;4.97;;;4.57;;
24826;SDS011;12910;57.690;11.974;2022-11-15T03:40:35;4.67;;;4.40;;
24826;SDS011;12910;57.690;11.974;2022-11-15T03:43:18;4.70;;;4.33;;
24826;SDS011;12910;57.690;11.974;2022-11-15T03:46:02;5.03;;;4.73;;
24826;SDS011;12910;57.690;11.974;2022-11-15T03:48:35;5.30;;;4.87;;
24826;SDS011;12910;57.690;11.974;2022-11-15T03:51:04;5.73;;;5.33;;
24826;SDS011;12910;57.690;11.974;2022-11-15T03:53:30;4.70;;;4.40;;
24826;SDS011;12910;57.690;11.974;2022-11-15T03:55:56;5.60;;;5.30;;
24826;SDS011;12910;57.690;11.974;2022-11-15T03:58:22;6.30;;;5.70;;
24826;SDS011;12910;57.690;11.974;2022-11-15T04:00:47;7.40;;;5.57;;
24826;SDS011;12910;57.690;11.974;2022-11-15T04:03:13;5.27;;;4.77;;
24826;SDS011;12910;57.690;11.974;2022-11-15T04:05:38;5.80;;;5.27;;
24826;SDS011;12910;57.690;11.974;2022-11-15T04:08:03;5.93;;;5.53;;
24826;SDS011;12910;57.690;11.974;2022-11-15T04:10:29;5.80;;;5.40;;
24826;SDS011;12910;57.690;11.974;2022-11-15T04:12:54;5.87;;;5.53;;
24826;SDS011;12910;57.690;11.974;2022-11-15T04:15:20;5.40;;;4.90;;
24826;SDS011;12910;57.690;11.974;2022-11-15T04:17:48;6.33;;;5.93;;
24826;SDS011;12910;57.690;11.974;2022-11-15T04:20:21;6.53;;;5.40;;
24826;SDS011;12910;57.690;11.974;2022-11-15T04:23:09;6.07;;;5.47;;
24826;SDS011;12910;57.690;11.974;2022-11-15T04:25:54;6.03;;;5.50;;
24826;SDS011;12910;57.690;11.974;2022-11-15T04:28:22;6.27;;;5.67;;
24826;SDS011;12910;57.690;11.974;2022-11-15T04:30:48;5.53;;;5.13;;
24826;SDS011;12910;57.690;11.974;2022-11-15T04:33:13;5.10;;;4.73;;
24826;SDS011;12910;57.690;11.974;2022-11-15T04:35:39;5.77;;;5.37;;
24826;SDS011;12910;57.690;11.974;2022-11-15T04:38:05;5.33;;;5.00;;
24826;SDS011;12910;57.690;11.974;2022-11-15T04:40:32;5.23;;;4.83;;
24826;SDS011;12910;57.690;11.974;2022-11-15T04:42:57;6.10;;;5.70;;
24826;SDS011;12910;57.690;11.974;2022-11-15T04:45:23;5.57;;;5.03;;
24826;SDS011;12910;57.690;11.974;2022-11-15T04:47:48;5.70;;;5.30;;
24826;SDS011;12910;57.690;11.974;2022-11-15T04:50:14;5.87;;;5.47;;
24826;SDS011;12910;57.690;11.974;2022-11-15T04:52:41;6.17;;;5.77;;
24826;SDS011;12910;57.690;11.974;2022-11-15T04:55:16;6.50;;;6.03;;
24826;SDS011;12910;57.690;11.974;2022-11-15T04:57:41;6.07;;;5.60;;
24826;SDS011;12910;57.690;11.974;2022-11-15T05:00:08;5.57;;;4.80;;
24826;SDS011;12910;57.690;11.974;2022-11-15T05:02:35;8.60;;;4.80;;
24826;SDS011;12910;57.690;11.974;2022-11-15T05:05:19;4.77;;;4.43;;
24826;SDS011;12910;57.690;11.974;2022-11-15T05:07:45;5.33;;;4.93;;
24826;SDS011;12910;57.690;11.974;2022-11-15T05:10:10;5.13;;;4.67;;
24826;SDS011;12910;57.690;11.974;2022-11-15T05:12:36;4.40;;;4.10;;
24826;SDS011;12910;57.690;11.974;2022-11-15T05:15:02;5.60;;;5.20;;
24826;SDS011;12910;57.690;11.974;2022-11-15T05:17:28;5.23;;;4.40;;
24826;SDS011;12910;57.690;11.974;2022-11-15T05:19:53;5.17;;;4.77;;
24826;SDS011;12910;57.690;11.974;2022-11-15T05:22:19;4.33;;;4.03;;
24826;SDS011;12910;57.690;11.974;2022-11-15T05:24:45;4.60;;;4.30;;
24826;SDS011;12910;57.690;11.974;2022-11-15T05:27:10;5.20;;;4.67;;
24826;SDS011;12910;57.690;11.974;2022-11-15T05:29:35;5.33;;;4.40;;
24826;SDS011;12910;57.690;11.974;2022-11-15T05:32:01;5.23;;;4.83;;
24826;SDS011;12910;57.690;11.974;2022-11-15T05:34:29;5.63;;;5.23;;
24826;SDS011;12910;57.690;11.974;2022-11-15T05:36:55;5.40;;;4.87;;
24826;SDS011;12910;57.690;11.974;2022-11-15T05:39:20;7.77;;;4.90;;
24826;SDS011;12910;57.690;11.974;2022-11-15T05:41:46;5.37;;;4.10;;
24826;SDS011;12910;57.690;11.974;2022-11-15T05:44:17;4.83;;;4.53;;
24826;SDS011;12910;57.690;11.974;2022-11-15T05:46:45;5.17;;;4.77;;
24826;SDS011;12910;57.690;11.974;2022-11-15T05:49:13;4.67;;;4.17;;
24826;SDS011;12910;57.690;11.974;2022-11-15T05:51:43;11.23;;;5.03;;
24826;SDS011;12910;57.690;11.974;2022-11-15T05:54:11;6.27;;;4.40;;
24826;SDS011;12910;57.690;11.974;2022-11-15T05:56:37;4.37;;;4.07;;
24826;SDS011;12910;57.690;11.974;2022-11-15T05:59:02;4.70;;;4.40;;
24826;SDS011;12910;57.690;11.974;2022-11-15T06:01:29;5.23;;;4.83;;
24826;SDS011;12910;57.690;11.974;2022-11-15T06:03:54;8.67;;;4.97;;
24826;SDS011;12910;57.690;11.974;2022-11-15T06:06:20;6.00;;;4.47;;
24826;SDS011;12910;57.690;11.974;2022-11-15T06:08:45;4.67;;;4.37;;
24826;SDS011;12910;57.690;11.974;2022-11-15T06:11:12;5.17;;;4.87;;
24826;SDS011;12910;57.690;11.974;2022-11-15T06:13:38;6.97;;;3.87;;
24826;SDS011;12910;57.690;11.974;2022-11-15T06:16:04;6.57;;;6.10;;
24826;SDS011;12910;57.690;11.974;2022-11-15T06:18:31;6.83;;;4.23;;
24826;SDS011;12910;57.690;11.974;2022-11-15T06:20:58;4.33;;;4.03;;
24826;SDS011;12910;57.690;11.974;2022-11-15T06:23:24;4.93;;;4.63;;
24826;SDS011;12910;57.690;11.974;2022-11-15T06:25:50;6.77;;;4.50;;
24826;SDS011;12910;57.690;11.974;2022-11-15T06:28:15;15.50;;;4.47;;
24826;SDS011;12910;57.690;11.974;2022-11-15T06:30:40;4.30;;;3.97;;
24826;SDS011;12910;57.690;11.974;2022-11-15T06:33:06;5.27;;;3.87;;
24826;SDS011;12910;57.690;11.974;2022-11-15T06:35:32;5.00;;;4.53;;
24826;SDS011;12910;57.690;11.974;2022-11-15T06:38:06;9.30;;;4.20;;
24826;SDS011;12910;57.690;11.974;2022-11-15T06:40:35;4.17;;;3.87;;
24826;SDS011;12910;57.690;11.974;2022-11-15T06:43:03;4.57;;;4.03;;
24826;SDS011;12910;57.690;11.974;2022-11-15T06:45:29;4.60;;;4.20;;
24826;SDS011;12910;57.690;11.974;2022-11-15T06:47:55;5.47;;;3.03;;
24826;SDS011;12910;57.690;11.974;2022-11-15T06:50:21;10.47;;;4.60;;
24826;SDS011;12910;57.690;11.974;2022-11-15T06:52:46;4.80;;;4.40;;
24826;SDS011;12910;57.690;11.974;2022-11-15T06:55:12;8.70;;;4.00;;
24826;SDS011;12910;57.690;11.974;2022-11-15T06:57:42;5.90;;;4.43;;
24826;SDS011;12910;57.690;11.974;2022-11-15T07:00:12;6.80;;;4.10;;
24826;SDS011;12910;57.690;11.974;2022-11-15T07:02:37;4.53;;;4.13;;
24826;SDS011;12910;57.690;11.974;2022-11-15T07:05:03;21.33;;;6.90;;
24826;SDS011;12910;57.690;11.974;2022-11-15T07:07:28;12.83;;;5.60;;
24826;SDS011;12910;57.690;11.974;2022-11-15T07:09:54;4.50;;;4.20;;
24826;SDS011;12910;57.690;11.974;2022-11-15T07:12:19;4.03;;;3.63;;
24826;SDS011;12910;57.690;11.974;2022-11-15T07:14:44;5.27;;;3.90;;
24826;SDS011;12910;57.690;11.974;2022-11-15T07:17:10;4.20;;;3.90;;
24826;SDS011;12910;57.690;11.974;2022-11-15T07:19:35;5.20;;;4.43;;
24826;SDS011;12910;57.690;11.974;2022-11-15T07:22:00;3.57;;;3.30;;
24826;SDS011;12910;57.690;11.974;2022-11-15T07:24:26;5.23;;;3.73;;
24826;SDS011;12910;57.690;11.974;2022-11-15T07:26:51;3.17;;;2.97;;
24826;SDS011;12910;57.690;11.974;2022-11-15T07:29:16;3.70;;;3.50;;
24826;SDS011;12910;57.690;11.974;2022-11-15T07:31:42;4.30;;;3.10;;
24826;SDS011;12910;57.690;11.974;2022-11-15T07:34:07;2.80;;;2.60;;
24826;SDS011;12910;57.690;11.974;2022-11-15T07:36:34;4.30;;;4.00;;
24826;SDS011;12910;57.690;11.974;2022-11-15T07:39:00;3.27;;;3.07;;
24826;SDS011;12910;57.690;11.974;2022-11-15T07:41:25;3.03;;;2.83;;
24826;SDS011;12910;57.690;11.974;2022-11-15T07:43:51;3.37;;;3.07;;
24826;SDS011;12910;57.690;11.974;2022-11-15T07:46:17;2.80;;;2.60;;
24826;SDS011;12910;57.690;11.974;2022-11-15T07:48:43;3.33;;;3.03;;
24826;SDS011;12910;57.690;11.974;2022-11-15T07:51:10;3.83;;;3.37;;
24826;SDS011;12910;57.690;11.974;2022-11-15T07:53:37;4.23;;;3.50;;
24826;SDS011;12910;57.690;11.974;2022-11-15T07:56:05;3.93;;;3.63;;
24826;SDS011;12910;57.690;11.974;2022-11-15T07:58:31;4.07;;;3.30;;
24826;SDS011;12910;57.690;11.974;2022-11-15T08:00:57;3.43;;;3.13;;
24826;SDS011;12910;57.690;11.974;2022-11-15T08:03:22;13.60;;;3.50;;
24826;SDS011;12910;57.690;11.974;2022-11-15T08:05:51;6.03;;;3.57;;
24826;SDS011;12910;57.690;11.974;2022-11-15T08:08:17;4.10;;;3.23;;
24826;SDS011;12910;57.690;11.974;2022-11-15T08:10:43;4.80;;;3.63;;
24826;SDS011;12910;57.690;11.974;2022-11-15T08:13:10;8.20;;;4.77;;
24826;SDS011;12910;57.690;11.974;2022-11-15T08:15:36;3.37;;;3.07;;
24826;SDS011;12910;57.690;11.974;2022-11-15T08:18:04;3.63;;;3.20;;
24826;SDS011;12910;57.690;11.974;2022-11-15T08:20:31;3.63;;;3.33;;
24826;SDS011;12910;57.690;11.974;2022-11-15T08:22:57;4.17;;;3.53;;
24826;SDS011;12910;57.690;11.974;2022-11-15T08:25:24;3.03;;;2.77;;
24826;SDS011;12910;57.690;11.974;2022-11-15T08:27:53;5.07;;;3.97;;
24826;SDS011;12910;57.690;11.974;2022-11-15T08:30:20;12.70;;;4.30;;
24826;SDS011;12910;57.690;11.974;2022-11-15T08:32:46;3.97;;;3.57;;
24826;SDS011;12910;57.690;11.974;2022-11-15T08:35:12;3.90;;;3.20;;
24826;SDS011;12910;57.690;11.974;2022-11-15T08:37:38;3.97;;;3.67;;
24826;SDS011;12910;57.690;11.974;2022-11-15T08:40:03;10.43;;;4.20;;
24826;SDS011;12910;57.690;11.974;2022-11-15T08:42:30;4.63;;;4.23;;
24826;SDS011;12910;57.690;11.974;2022-11-15T08:44:55;3.73;;;3.20;;
24826;SDS011;12910;57.690;11.974;2022-11-15T08:47:21;2.50;;;2.30;;
24826;SDS011;12910;57.690;11.974;2022-11-15T08:49:46;3.37;;;3.13;;
24826;SDS011;12910;57.690;11.974;2022-11-15T08:52:11;17.83;;;3.83;;
24826;SDS011;12910;57.690;11.974;2022-11-15T08:54:38;9.50;;;3.30;;
24826;SDS011;12910;57.690;11.974;2022-11-15T08:57:04;2.60;;;2.50;;
24826;SDS011;12910;57.690;11.974;2022-11-15T08:59:29;6.57;;;3.23;;
24826;SDS011;12910;57.690;11.974;2022-11-15T09:01:55;3.23;;;3.03;;
24826;SDS011;12910;57.690;11.974;2022-11-15T09:04:20;3.57;;;3.17;;
24826;SDS011;12910;57.690;11.974;2022-11-15T09:06:45;4.33;;;2.83;;
24826;SDS011;12910;57.690;11.974;2022-11-15T09:09:11;3.10;;;2.87;;
24826;SDS011;12910;57.690;11.974;2022-11-15T09:11:36;6.70;;;3.40;;
24826;SDS011;12910;57.690;11.974;2022-11-15T09:14:02;9.37;;;4.60;;
24826;SDS011;12910;57.690;11.974;2022-11-15T09:16:27;7.77;;;2.93;;
24826;SDS011;12910;57.690;11.974;2022-11-15T09:18:55;3.30;;;3.10;;
24826;SDS011;12910;57.690;11.974;2022-11-15T09:21:21;5.43;;;3.30;;
24826;SDS011;12910;57.690;11.974;2022-11-15T09:23:46;3.40;;;3.10;;
24826;SDS011;12910;57.690;11.974;2022-11-15T09:26:12;3.53;;;3.33;;
24826;SDS011;12910;57.690;11.974;2022-11-15T09:28:38;3.47;;;2.80;;
24826;SDS011;12910;57.690;11.974;2022-11-15T09:31:06;4.17;;;3.80;;
24826;SDS011;12910;57.690;11.974;2022-11-15T09:33:32;3.77;;;3.47;;
24826;SDS011;12910;57.690;11.974;2022-11-15T09:36:02;3.57;;;3.33;;
24826;SDS011;12910;57.690;11.974;2022-11-15T09:38:30;6.57;;;3.17;;
24826;SDS011;12910;57.690;11.974;2022-11-15T09:41:15;3.40;;;3.10;;
24826;SDS011;12910;57.690;11.974;2022-11-15T09:47:00;9.53;;;3.60;;
24826;SDS011;12910;57.690;11.974;2022-11-15T09:49:50;3.10;;;2.77;;
24826;SDS011;12910;57.690;11.974;2022-11-15T09:52:21;3.00;;;2.80;;
24826;SDS011;12910;57.690;11.974;2022-11-15T09:54:48;4.37;;;2.80;;
24826;SDS011;12910;57.690;11.974;2022-11-15T09:57:16;3.53;;;3.23;;
24826;SDS011;12910;57.690;11.974;2022-11-15T10:05:30;4.57;;;3.27;;
24826;SDS011;12910;57.690;11.974;2022-11-15T10:08:03;5.23;;;3.50;;
24826;SDS011;12910;57.690;11.974;2022-11-15T10:10:36;3.83;;;3.63;;
24826;SDS011;12910;57.690;11.974;2022-11-15T10:13:13;3.33;;;3.03;;
24826;SDS011;12910;57.690;11.974;2022-11-15T10:15:44;4.53;;;3.77;;
24826;SDS011;12910;57.690;11.974;2022-11-15T10:18:23;3.60;;;3.17;;
24826;SDS011;12910;57.690;11.974;2022-11-15T10:21:02;5.10;;;3.47;;
24826;SDS011;12910;57.690;11.974;2022-11-15T10:23:40;3.60;;;3.30;;
24826;SDS011;12910;57.690;11.974;2022-11-15T10:26:07;11.33;;;4.03;;
24826;SDS011;12910;57.690;11.974;2022-11-15T10:28:38;7.77;;;2.67;;
24826;SDS011;12910;57.690;11.974;2022-11-15T10:31:10;3.70;;;3.37;;
24826;SDS011;12910;57.690;11.974;2022-11-15T10:33:47;3.40;;;3.20;;
24826;SDS011;12910;57.690;11.974;2022-11-15T10:41:13;4.77;;;3.00;;
24826;SDS011;12910;57.690;11.974;2022-11-15T10:43:40;5.37;;;3.07;;
24826;SDS011;12910;57.690;11.974;2022-11-15T10:46:19;7.83;;;3.60;;
24826;SDS011;12910;57.690;11.974;2022-11-15T10:48:48;3.50;;;3.10;;
24826;SDS011;12910;57.690;11.974;2022-11-15T10:51:26;2.90;;;2.70;;
24826;SDS011;12910;57.690;11.974;2022-11-15T10:53:54;3.33;;;3.03;;
24826;SDS011;12910;57.690;11.974;2022-11-15T10:56:22;3.00;;;2.70;;
24826;SDS011;12910;57.690;11.974;2022-11-15T10:58:51;6.67;;;2.60;;
24826;SDS011;12910;57.690;11.974;2022-11-15T11:01:27;3.17;;;2.97;;
24826;SDS011;12910;57.690;11.974;2022-11-15T11:04:03;4.97;;;3.53;;
24826;SDS011;12910;57.690;11.974;2022-11-15T11:06:31;4.37;;;2.90;;
24826;SDS011;12910;57.690;11.974;2022-11-15T11:09:30;2.90;;;2.47;;
24826;SDS011;12910;57.690;11.974;2022-11-15T11:11:58;3.23;;;2.30;;
24826;SDS011;12910;57.690;11.974;2022-11-15T11:14:25;11.97;;;3.07;;
24826;SDS011;12910;57.690;11.974;2022-11-15T11:19:44;2.80;;;2.60;;
24826;SDS011;12910;57.690;11.974;2022-11-15T11:22:15;5.03;;;2.80;;
24826;SDS011;12910;57.690;11.974;2022-11-15T11:30:00;6.57;;;2.40;;
24826;SDS011;12910;57.690;11.974;2022-11-15T11:35:59;3.80;;;3.03;;
24826;SDS011;12910;57.690;11.974;2022-11-15T11:41:06;3.23;;;3.03;;
24826;SDS011;12910;57.690;11.974;2022-11-15T11:49:10;11.10;;;3.23;;
24826;SDS011;12910;57.690;11.974;2022-11-15T11:52:16;23.17;;;4.73;;
24826;SDS011;12910;57.690;11.974;2022-11-15T11:57:45;5.60;;;1.47;;
24826;SDS011;12910;57.690;11.974;2022-11-15T12:00:17;5.67;;;1.93;;
24826;SDS011;12910;57.690;11.974;2022-11-15T12:02:47;11.23;;;4.50;;
24826;SDS011;12910;57.690;11.974;2022-11-15T12:05:39;2.80;;;2.17;;
24826;SDS011;12910;57.690;11.974;2022-11-15T12:08:25;1.77;;;1.53;;
24826;SDS011;12910;57.690;11.974;2022-11-15T12:11:02;2.80;;;1.63;;
24826;SDS011;12910;57.690;11.974;2022-11-15T12:13:33;8.90;;;1.77;;
24826;SDS011;12910;57.690;11.974;2022-11-15T12:16:12;4.40;;;2.10;;
24826;SDS011;12910;57.690;11.974;2022-11-15T12:18:41;9.03;;;3.10;;
24826;SDS011;12910;57.690;11.974;2022-11-15T12:21:13;3.17;;;2.17;;
24826;SDS011;12910;57.690;11.974;2022-11-15T12:23:51;2.43;;;2.23;;
24826;SDS011;12910;57.690;11.974;2022-11-15T12:26:25;3.90;;;1.63;;
24826;SDS011;12910;57.690;11.974;2022-11-15T12:28:59;2.17;;;1.77;;
24826;SDS011;12910;57.690;11.974;2022-11-15T12:34:01;3.17;;;1.67;;
24826;SDS011;12910;57.690;11.974;2022-11-15T12:36:35;1.53;;;1.43;;
24826;SDS011;12910;57.690;11.974;2022-11-15T12:41:32;12.57;;;2.20;;
24826;SDS011;12910;57.690;11.974;2022-11-15T12:43:59;2.07;;;1.43;;
24826;SDS011;12910;57.690;11.974;2022-11-15T12:48:57;2.00;;;1.77;;
24826;SDS011;12910;57.690;11.974;2022-11-15T12:56:48;4.27;;;1.70;;
24826;SDS011;12910;57.690;11.974;2022-11-15T13:07:54;1.30;;;1.20;;
24826;SDS011;12910;57.690;11.974;2022-11-15T13:10:29;36.73;;;3.20;;
24826;SDS011;12910;57.690;11.974;2022-11-15T13:12:57;11.90;;;1.57;;
24826;SDS011;12910;57.690;11.974;2022-11-15T13:17:55;3.07;;;1.40;;
24826;SDS011;12910;57.690;11.974;2022-11-15T13:20:28;1.93;;;1.60;;
24826;SDS011;12910;57.690;11.974;2022-11-15T13:28:27;1.07;;;1.03;;
24826;SDS011;12910;57.690;11.974;2022-11-15T13:31:03;8.83;;;1.77;;
24826;SDS011;12910;57.690;11.974;2022-11-15T13:33:47;1.00;;;1.00;;
24826;SDS011;12910;57.690;11.974;2022-11-15T13:36:18;1.23;;;0.93;;
24826;SDS011;12910;57.690;11.974;2022-11-15T13:38:44;0.70;;;0.70;;
24826;SDS011;12910;57.690;11.974;2022-11-15T13:41:26;1.60;;;0.77;;
24826;SDS011;12910;57.690;11.974;2022-11-15T13:43:54;0.60;;;0.50;;
24826;SDS011;12910;57.690;11.974;2022-11-15T13:46:30;1.07;;;0.80;;
24826;SDS011;12910;57.690;11.974;2022-11-15T13:49:05;5.97;;;1.10;;
24826;SDS011;12910;57.690;11.974;2022-11-15T13:51:41;2.30;;;0.80;;
24826;SDS011;12910;57.690;11.974;2022-11-15T13:59:29;0.77;;;0.53;;
24826;SDS011;12910;57.690;11.974;2022-11-15T14:01:57;3.23;;;0.80;;
24826;SDS011;12910;57.690;11.974;2022-11-15T14:04:47;5.97;;;1.30;;
24826;SDS011;12910;57.690;11.974;2022-11-15T14:07:20;0.70;;;0.70;;
24826;SDS011;12910;57.690;11.974;2022-11-15T14:09:48;0.93;;;0.73;;
24826;SDS011;12910;57.690;11.974;2022-11-15T14:12:21;1.30;;;1.20;;
24826;SDS011;12910;57.690;11.974;2022-11-15T14:14:55;1.73;;;0.70;;
24826;SDS011;12910;57.690;11.974;2022-11-15T14:17:33;1.00;;;0.90;;
24826;SDS011;12910;57.690;11.974;2022-11-15T14:20:00;1.33;;;0.90;;
24826;SDS011;12910;57.690;11.974;2022-11-15T14:22:27;2.10;;;1.20;;
24826;SDS011;12910;57.690;11.974;2022-11-15T14:25:16;3.43;;;1.27;;
24826;SDS011;12910;57.690;11.974;2022-11-15T14:30:42;3.10;;;0.67;;
24826;SDS011;12910;57.690;11.974;2022-11-15T14:33:41;0.70;;;0.50;;
24826;SDS011;12910;57.690;11.974;2022-11-15T14:36:05;1.30;;;0.50;;
24826;SDS011;12910;57.690;11.974;2022-11-15T14:38:41;1.60;;;0.57;;
24826;SDS011;12910;57.690;11.974;2022-11-15T14:41:20;5.47;;;1.20;;
24826;SDS011;12910;57.690;11.974;2022-11-15T14:43:47;0.40;;;0.40;;
24826;SDS011;12910;57.690;11.974;2022-11-15T14:46:13;0.40;;;0.40;;
24826;SDS011;12910;57.690;11.974;2022-11-15T14:48:38;0.73;;;0.50;;
24826;SDS011;12910;57.690;11.974;2022-11-15T14:51:09;2.10;;;0.33;;
24826;SDS011;12910;57.690;11.974;2022-11-15T14:53:39;3.27;;;0.50;;
24826;SDS011;12910;57.690;11.974;2022-11-15T14:56:05;4.27;;;0.60;;
24826;SDS011;12910;57.690;11.974;2022-11-15T14:58:30;0.50;;;0.50;;
24826;SDS011;12910;57.690;11.974;2022-11-15T15:00:56;0.87;;;0.50;;
24826;SDS011;12910;57.690;11.974;2022-11-15T15:03:21;1.80;;;0.40;;
24826;SDS011;12910;57.690;11.974;2022-11-15T15:05:46;0.80;;;0.80;;
24826;SDS011;12910;57.690;11.974;2022-11-15T15:08:12;0.80;;;0.40;;
24826;SDS011;12910;57.690;11.974;2022-11-15T15:10:39;1.33;;;0.40;;
24826;SDS011;12910;57.690;11.974;2022-11-15T15:13:10;0.50;;;0.50;;
24826;SDS011;12910;57.690;11.974;2022-11-15T15:15:41;0.40;;;0.37;;
24826;SDS011;12910;57.690;11.974;2022-11-15T15:18:07;0.93;;;0.50;;
24826;SDS011;12910;57.690;11.974;2022-11-15T15:20:34;0.57;;;0.30;;
24826;SDS011;12910;57.690;11.974;2022-11-15T15:23:00;0.23;;;0.23;;
24826;SDS011;12910;57.690;11.974;2022-11-15T15:25:30;0.50;;;0.30;;
24826;SDS011;12910;57.690;11.974;2022-11-15T15:27:58;0.40;;;0.40;;
24826;SDS011;12910;57.690;11.974;2022-11-15T15:30:24;1.23;;;0.60;;
24826;SDS011;12910;57.690;11.974;2022-11-15T15:32:50;0.80;;;0.40;;
24826;SDS011;12910;57.690;11.974;2022-11-15T15:35:16;0.40;;;0.30;;
24826;SDS011;12910;57.690;11.974;2022-11-15T15:37:43;1.53;;;0.40;;
24826;SDS011;12910;57.690;11.974;2022-11-15T15:40:14;0.57;;;0.30;;
24826;SDS011;12910;57.690;11.974;2022-11-15T15:42:45;0.30;;;0.30;;
24826;SDS011;12910;57.690;11.974;2022-11-15T15:45:11;0.97;;;0.40;;
24826;SDS011;12910;57.690;11.974;2022-11-15T15:47:36;0.77;;;0.40;;
24826;SDS011;12910;57.690;11.974;2022-11-15T15:50:03;0.20;;;0.20;;
24826;SDS011;12910;57.690;11.974;2022-11-15T15:52:29;0.93;;;0.27;;
24826;SDS011;12910;57.690;11.974;2022-11-15T15:54:55;1.07;;;0.40;;
24826;SDS011;12910;57.690;11.974;2022-11-15T15:57:20;2.57;;;0.23;;
24826;SDS011;12910;57.690;11.974;2022-11-15T15:59:45;0.43;;;0.20;;
24826;SDS011;12910;57.690;11.974;2022-11-15T16:02:11;2.57;;;0.30;;
24826;SDS011;12910;57.690;11.974;2022-11-15T16:04:37;0.20;;;0.20;;
24826;SDS011;12910;57.690;11.974;2022-11-15T16:07:02;0.67;;;0.30;;
24826;SDS011;12910;57.690;11.974;2022-11-15T16:09:29;1.50;;;0.30;;
24826;SDS011;12910;57.690;11.974;2022-11-15T16:12:13;0.80;;;0.20;;
24826;SDS011;12910;57.690;11.974;2022-11-15T16:14:39;1.00;;;0.40;;
24826;SDS011;12910;57.690;11.974;2022-11-15T16:17:04;0.53;;;0.20;;
24826;SDS011;12910;57.690;11.974;2022-11-15T16:19:30;4.37;;;0.50;;
24826;SDS011;12910;57.690;11.974;2022-11-15T16:21:55;1.23;;;0.20;;
24826;SDS011;12910;57.690;11.974;2022-11-15T16:24:21;0.17;;;0.10;;
24826;SDS011;12910;57.690;11.974;2022-11-15T16:26:47;5.10;;;0.30;;